createdAt,value
2022-11-24T00:02:29.465Z,19.00
2022-11-24T00:05:31.696Z,19.00
2022-11-24T00:08:34.999Z,19.00
2022-11-24T00:11:37.506Z,18.94
2022-11-24T00:14:39.552Z,18.94
2022-11-24T00:17:41.686Z,18.94
2022-11-24T00:20:43.732Z,18.94
2022-11-24T00:23:46.677Z,18.94
2022-11-24T00:26:48.802Z,18.88
2022-11-24T00:29:50.847Z,18.88
2022-11-24T00:32:53.278Z,18.88
2022-11-24T00:35:57.314Z,18.94
2022-11-24T00:39:01.878Z,18.88
2022-11-24T00:42:03.999Z,18.88
2022-11-24T00:45:13.549Z,18.88
2022-11-24T00:48:16.458Z,18.88
2022-11-24T00:51:20.224Z,18.81
2022-11-24T00:54:22.488Z,18.81
2022-11-24T00:57:24.559Z,18.88
2022-11-24T01:00:26.684Z,18.81
2022-11-24T01:03:28.925Z,18.81
2022-11-24T01:06:32.635Z,18.81
2022-11-24T01:09:34.969Z,18.81
2022-11-24T01:12:37.091Z,18.81
2022-11-24T01:15:39.727Z,18.81
2022-11-24T01:18:41.941Z,18.81
2022-11-24T01:21:44.046Z,18.81
2022-11-24T01:24:46.210Z,18.75
2022-11-24T01:27:48.259Z,18.75
2022-11-24T01:31:00.664Z,18.81
2022-11-24T01:34:02.840Z,18.75
2022-11-24T01:37:04.905Z,18.75
2022-11-24T01:40:07.816Z,18.75
2022-11-24T01:43:18.350Z,18.69
2022-11-24T01:46:32.602Z,18.69
2022-11-24T01:49:43.776Z,18.69
2022-11-24T01:52:49.538Z,18.75
2022-11-24T01:55:53.293Z,18.69
2022-11-24T01:58:58.552Z,18.69
2022-11-24T02:02:00.672Z,18.69
2022-11-24T02:05:10.259Z,18.69
2022-11-24T02:08:28.844Z,18.69
2022-11-24T02:11:36.269Z,18.69
2022-11-24T02:14:40.809Z,18.63
2022-11-24T02:17:42.900Z,18.69
2022-11-24T02:20:45.051Z,18.63
2022-11-24T02:24:06.493Z,18.63
2022-11-24T02:27:10.572Z,18.63
2022-11-24T02:30:12.615Z,18.56
2022-11-24T02:33:15.154Z,18.63
2022-11-24T02:36:17.312Z,18.63
2022-11-24T02:39:19.602Z,18.56
2022-11-24T02:42:22.222Z,18.56
2022-11-24T02:45:25.834Z,18.56
2022-11-24T02:48:28.287Z,18.56
2022-11-24T02:51:30.350Z,18.56
2022-11-24T02:54:32.866Z,18.56
2022-11-24T02:57:35.128Z,18.56
2022-11-24T03:00:37.204Z,18.50
2022-11-24T03:03:39.445Z,18.50
2022-11-24T03:06:43.255Z,18.50
2022-11-24T03:09:45.645Z,18.50
2022-11-24T03:12:47.702Z,18.50
2022-11-24T03:15:49.913Z,18.44
2022-11-24T03:18:52.742Z,18.50
2022-11-24T03:21:54.798Z,18.50
2022-11-24T03:24:56.823Z,18.44
2022-11-24T03:27:58.972Z,18.44
2022-11-24T03:31:02.177Z,18.44
2022-11-24T03:34:04.289Z,18.44
2022-11-24T03:37:07.515Z,18.44
2022-11-24T03:40:10.106Z,18.44
2022-11-24T03:43:12.199Z,18.44
2022-11-24T03:46:14.328Z,18.44
2022-11-24T03:49:16.393Z,18.44
2022-11-24T03:52:18.453Z,18.44
2022-11-24T03:55:20.544Z,18.38
2022-11-24T03:58:22.971Z,18.38
2022-11-24T04:01:25.221Z,18.38
2022-11-24T04:04:27.334Z,18.38
2022-11-24T04:07:29.430Z,18.38
2022-11-24T04:10:33.722Z,18.50
2022-11-24T04:13:35.905Z,18.50
2022-11-24T04:16:38.042Z,18.56
2022-11-24T04:19:40.145Z,18.63
2022-11-24T04:22:42.823Z,18.69
2022-11-24T04:25:44.910Z,18.69
2022-11-24T04:28:47.959Z,18.69
2022-11-24T04:31:50.067Z,18.69
2022-11-24T04:34:52.179Z,18.69
2022-11-24T04:37:54.270Z,18.69
2022-11-24T04:41:00.492Z,18.75
2022-11-24T04:44:02.570Z,18.81
2022-11-24T04:47:05.214Z,18.81
2022-11-24T04:50:08.951Z,18.88
2022-11-24T04:53:11.791Z,18.94
2022-11-24T04:56:14.656Z,18.94
2022-11-24T04:59:17.106Z,19.00
2022-11-24T05:02:19.984Z,19.00
2022-11-24T05:05:22.052Z,19.00
2022-11-24T05:08:24.155Z,19.00
2022-11-24T05:11:26.192Z,19.00
2022-11-24T05:14:28.729Z,19.00
2022-11-24T05:17:32.198Z,18.94
2022-11-24T05:20:34.731Z,18.94
2022-11-24T05:23:36.909Z,18.94
2022-11-24T05:26:38.986Z,19.00
2022-11-24T05:29:41.099Z,19.19
2022-11-24T05:32:43.597Z,19.44
2022-11-24T05:35:46.470Z,19.63
2022-11-24T05:38:48.557Z,19.81
2022-11-24T05:41:50.678Z,20.00
2022-11-24T05:44:53.543Z,20.00
2022-11-24T05:47:55.676Z,20.06
2022-11-24T05:50:58.635Z,20.00
2022-11-24T05:54:00.669Z,20.06
2022-11-24T05:57:02.755Z,20.06
2022-11-24T06:00:07.172Z,19.94
2022-11-24T06:03:10.700Z,20.00
2022-11-24T06:06:13.124Z,19.94
2022-11-24T06:09:15.152Z,19.94
2022-11-24T06:12:17.180Z,19.81
2022-11-24T06:15:19.508Z,19.88
2022-11-24T06:18:21.537Z,19.81
2022-11-24T06:21:23.601Z,19.81
2022-11-24T06:24:25.668Z,19.75
2022-11-24T06:27:27.960Z,19.75
2022-11-24T06:30:30.219Z,19.81
2022-11-24T06:33:34.289Z,19.88
2022-11-24T06:36:36.389Z,19.94
2022-11-24T06:39:38.454Z,19.94
2022-11-24T06:42:40.547Z,19.94
2022-11-24T06:45:42.678Z,19.94
2022-11-24T06:48:44.846Z,19.94
2022-11-24T06:51:46.952Z,19.94
2022-11-24T06:54:48.986Z,20.00
2022-11-24T07:00:54.627Z,20.13
2022-11-24T07:03:57.687Z,20.13
2022-11-24T07:06:59.937Z,20.06
2022-11-24T07:10:02.144Z,20.06
2022-11-24T07:13:07.031Z,20.00
2022-11-24T07:16:23.753Z,20.00
2022-11-24T07:19:26.029Z,19.94
2022-11-24T07:22:28.187Z,20.00
2022-11-24T07:25:30.355Z,20.00
2022-11-24T07:28:33.092Z,19.94
2022-11-24T07:31:38.058Z,20.06
2022-11-24T07:34:40.157Z,20.19
2022-11-24T07:37:42.200Z,20.19
2022-11-24T07:40:44.274Z,20.19
2022-11-24T07:43:47.651Z,20.19
2022-11-24T07:46:51.188Z,20.19
2022-11-24T07:49:53.231Z,20.19
2022-11-24T07:52:55.298Z,20.19
2022-11-24T07:56:02.181Z,20.25
2022-11-24T07:59:05.061Z,20.25
2022-11-24T08:02:07.475Z,20.25
2022-11-24T08:05:09.677Z,20.25
2022-11-24T08:08:11.705Z,20.31
2022-11-24T08:11:17.057Z,20.38
2022-11-24T08:14:19.274Z,20.38
2022-11-24T08:17:21.323Z,20.38
2022-11-24T08:20:23.370Z,20.31
2022-11-24T08:23:25.930Z,20.50
2022-11-24T08:26:27.961Z,20.50
2022-11-24T08:29:30.868Z,20.50
2022-11-24T08:32:33.006Z,20.50
2022-11-24T08:35:38.607Z,20.56
2022-11-24T08:38:41.016Z,20.56
2022-11-24T08:41:43.277Z,20.63
2022-11-24T08:44:45.333Z,20.63
2022-11-24T08:47:55.105Z,20.63
2022-11-24T08:50:58.294Z,20.50
2022-11-24T08:54:01.524Z,20.56
2022-11-24T08:57:03.762Z,20.56
2022-11-24T09:00:07.376Z,20.50
2022-11-24T09:03:12.647Z,20.50
2022-11-24T09:06:15.415Z,20.50
2022-11-24T09:09:17.870Z,20.50
2022-11-24T09:12:19.972Z,20.56
2022-11-24T09:15:22.861Z,20.50
2022-11-24T09:18:29.976Z,20.50
2022-11-24T09:21:34.300Z,20.56
2022-11-24T09:24:36.464Z,20.56
2022-11-24T09:27:38.674Z,20.56
2022-11-24T09:30:40.862Z,20.50
2022-11-24T09:33:43.873Z,20.50
2022-11-24T09:36:46.149Z,20.50
2022-11-24T09:39:48.183Z,20.50
2022-11-24T09:43:19.411Z,20.50
2022-11-24T09:46:32.860Z,20.56
2022-11-24T09:49:47.316Z,20.56
2022-11-24T09:53:16.337Z,20.56
2022-11-24T09:56:30.795Z,20.56
2022-11-24T09:59:33.213Z,20.63
2022-11-24T10:02:35.398Z,20.50
2022-11-24T10:05:37.659Z,20.44
2022-11-24T10:08:49.566Z,20.44
2022-11-24T10:12:09.555Z,20.44
2022-11-24T10:15:19.015Z,20.38
2022-11-24T10:19:05.747Z,20.38
2022-11-24T10:22:44.119Z,20.38
2022-11-24T10:25:59.899Z,20.38
2022-11-24T10:29:13.802Z,20.38
2022-11-24T10:32:32.072Z,20.38
2022-11-24T10:35:48.174Z,20.38
2022-11-24T10:39:06.261Z,20.38
2022-11-24T10:42:17.647Z,20.38
2022-11-24T10:45:24.159Z,20.50
2022-11-24T10:48:29.898Z,20.44
2022-11-24T10:52:09.950Z,20.38
2022-11-24T10:55:12.051Z,20.38
2022-11-24T10:58:17.340Z,20.38
2022-11-24T11:01:26.396Z,20.44
2022-11-24T11:04:34.969Z,20.44
2022-11-24T11:07:37.091Z,20.44
2022-11-24T11:10:39.396Z,20.38
2022-11-24T11:13:55.798Z,20.38
2022-11-24T11:17:02.547Z,20.38
2022-11-24T11:20:16.940Z,20.38
2022-11-24T11:23:32.273Z,20.44
2022-11-24T11:26:37.669Z,20.50
2022-11-24T11:36:24.617Z,20.50
2022-11-24T11:39:37.108Z,20.50
2022-11-24T11:43:01.971Z,20.50
2022-11-24T11:46:17.859Z,20.50
2022-11-24T11:49:20.258Z,20.44
2022-11-24T11:52:32.753Z,20.50
2022-11-24T11:55:49.923Z,20.50
2022-11-24T11:59:26.017Z,20.50
2022-11-24T12:02:53.952Z,19.81
2022-11-24T12:06:46.935Z,18.00
2022-11-24T12:10:25.693Z,18.19
2022-11-24T12:13:56.484Z,18.50
2022-11-24T12:17:33.225Z,18.00
2022-11-24T12:20:40.798Z,18.69
2022-11-24T12:23:53.341Z,18.75
2022-11-24T12:27:05.718Z,18.69
2022-11-24T12:30:15.883Z,19.50
2022-11-24T12:33:27.826Z,20.00
2022-11-24T12:36:35.775Z,20.00
2022-11-24T12:40:13.323Z,20.00
2022-11-24T12:43:26.098Z,20.06
2022-11-24T12:46:49.603Z,20.19
2022-11-24T12:50:11.573Z,20.13
2022-11-24T12:53:24.637Z,20.19
2022-11-24T12:56:37.530Z,20.19
2022-11-24T12:59:46.760Z,20.25
2022-11-24T13:03:18.485Z,20.44
2022-11-24T13:06:36.166Z,20.69
2022-11-24T13:09:58.561Z,20.81
2022-11-24T13:13:14.452Z,21.00
2022-11-24T13:16:53.547Z,21.06
2022-11-24T13:19:46.838Z,21.13
2022-11-24T13:23:03.476Z,21.19
2022-11-24T13:26:27.373Z,21.19
2022-11-24T13:29:36.008Z,21.25
2022-11-24T13:32:38.160Z,21.25
2022-11-24T13:36:01.159Z,21.25
2022-11-24T13:39:17.159Z,21.31
2022-11-24T13:42:43.331Z,21.31
2022-11-24T13:45:45.269Z,21.31
2022-11-24T13:48:47.447Z,21.31
2022-11-24T13:51:53.247Z,21.25
2022-11-24T13:54:55.433Z,21.25
2022-11-24T13:57:59.314Z,21.25
2022-11-24T14:01:16.517Z,21.19
2022-11-24T14:04:43.144Z,21.06
2022-11-24T14:07:47.178Z,20.88
2022-11-24T14:10:49.599Z,20.81
2022-11-24T14:13:51.760Z,20.75
2022-11-24T14:17:06.887Z,20.69
2022-11-24T14:20:25.221Z,20.63
2022-11-24T14:23:27.657Z,20.63
2022-11-24T14:26:35.517Z,20.63
2022-11-24T14:29:37.669Z,20.56
2022-11-24T14:32:40.865Z,20.56
2022-11-24T14:35:49.275Z,20.50
2022-11-24T14:38:51.364Z,20.50
2022-11-24T14:42:09.897Z,20.50
2022-11-24T14:45:18.541Z,20.56
2022-11-24T14:48:28.294Z,20.50
2022-11-24T14:51:34.732Z,20.50
2022-11-24T14:54:54.162Z,20.56
2022-11-24T14:57:56.587Z,20.63
2022-11-24T15:01:29.632Z,20.63
2022-11-24T15:05:01.478Z,20.56
2022-11-24T15:08:04.098Z,20.56
2022-11-24T15:11:07.349Z,20.50
2022-11-24T15:14:31.932Z,20.50
2022-11-24T15:17:34.379Z,20.56
2022-11-24T15:20:46.276Z,20.50
2022-11-24T15:24:15.585Z,20.44
2022-11-24T15:27:17.608Z,20.38
2022-11-24T15:30:19.723Z,20.44
2022-11-24T15:33:23.165Z,20.38
2022-11-24T15:36:25.244Z,20.38
2022-11-24T15:39:27.372Z,20.38
2022-11-24T15:42:29.425Z,20.44
2022-11-24T15:45:33.819Z,20.38
2022-11-24T15:48:36.204Z,20.44
2022-11-24T15:51:42.474Z,20.38
2022-11-24T15:54:44.683Z,20.38
2022-11-24T15:57:47.238Z,20.44
2022-11-24T16:00:50.827Z,20.31
2022-11-24T16:03:53.019Z,20.31
2022-11-24T16:06:55.064Z,20.19
2022-11-24T16:09:57.134Z,20.19
2022-11-24T16:12:59.181Z,20.19
2022-11-24T16:16:01.491Z,20.19
2022-11-24T16:19:03.924Z,20.19
2022-11-24T16:22:06.677Z,20.19
2022-11-24T16:25:09.575Z,20.06
2022-11-24T16:28:11.861Z,20.06
2022-11-24T16:31:15.842Z,20.06
2022-11-24T16:34:18.472Z,20.06
2022-11-24T16:37:23.532Z,20.06
2022-11-24T16:40:25.705Z,20.00
2022-11-24T16:43:29.565Z,20.06
2022-11-24T16:46:31.698Z,20.13
2022-11-24T16:49:34.108Z,20.06
2022-11-24T16:52:36.569Z,20.00
2022-11-24T16:55:38.622Z,20.00
2022-11-24T16:58:41.796Z,20.00
2022-11-24T17:01:46.621Z,19.94
2022-11-24T17:04:52.177Z,19.94
2022-11-24T17:07:54.265Z,19.88
2022-11-24T17:10:56.441Z,19.88
2022-11-24T17:13:58.816Z,19.88
2022-11-24T17:17:00.898Z,19.88
2022-11-24T17:20:03.081Z,19.88
2022-11-24T17:23:05.223Z,19.94
2022-11-24T17:26:11.240Z,19.81
2022-11-24T17:29:13.552Z,19.81
2022-11-24T17:32:15.702Z,19.81
2022-11-24T17:35:17.790Z,19.81
2022-11-24T17:38:19.918Z,19.81
2022-11-24T17:41:25.024Z,19.81
2022-11-24T17:44:27.544Z,19.81
2022-11-24T17:47:30.154Z,19.81
2022-11-24T17:50:32.252Z,19.75
2022-11-24T17:53:36.825Z,19.75
2022-11-24T17:56:40.699Z,19.75
2022-11-24T17:59:42.822Z,19.75
2022-11-24T18:02:44.953Z,19.75
2022-11-24T18:05:47.172Z,19.75
2022-11-24T18:08:49.224Z,19.75
2022-11-24T18:11:52.136Z,19.75
2022-11-24T18:14:55.597Z,19.69
2022-11-24T18:17:57.670Z,19.69
2022-11-24T18:21:01.205Z,19.69
2022-11-24T18:24:03.349Z,19.69
2022-11-24T18:27:05.426Z,19.69
2022-11-24T18:30:08.045Z,19.69
2022-11-24T18:33:10.118Z,19.63
2022-11-24T18:36:22.642Z,19.63
2022-11-24T18:39:28.256Z,19.69
2022-11-24T18:42:30.374Z,19.63
2022-11-24T18:45:32.563Z,19.63
2022-11-24T18:48:35.425Z,19.63
2022-11-24T18:51:37.559Z,19.63
2022-11-24T18:54:39.664Z,19.63
2022-11-24T18:57:41.826Z,19.63
2022-11-24T19:00:43.951Z,19.63
2022-11-24T19:03:51.064Z,19.56
2022-11-24T19:06:53.143Z,19.56
2022-11-24T19:09:55.391Z,19.56
2022-11-24T19:12:57.484Z,19.56
2022-11-24T19:16:00.319Z,19.56
2022-11-24T19:19:02.941Z,19.56
2022-11-24T19:22:05.195Z,19.56
2022-11-24T19:25:10.396Z,19.56
2022-11-24T19:28:12.675Z,19.56
2022-11-24T19:31:16.568Z,19.56
2022-11-24T19:34:18.789Z,19.56
2022-11-24T19:37:21.635Z,19.56
2022-11-24T19:40:24.261Z,19.50
2022-11-24T19:43:26.747Z,19.50
2022-11-24T19:46:29.897Z,19.50
2022-11-24T19:49:32.447Z,19.50
2022-11-24T19:52:35.016Z,19.50
2022-11-24T19:55:37.944Z,19.56
2022-11-24T19:58:42.897Z,19.50
2022-11-24T20:01:45.806Z,19.50
2022-11-24T20:04:47.933Z,19.50
2022-11-24T20:07:50.035Z,19.50
2022-11-24T20:10:52.144Z,19.44
2022-11-24T20:13:54.523Z,19.50
2022-11-24T20:16:56.675Z,19.44
2022-11-24T20:19:58.954Z,19.50
2022-11-24T20:23:01.037Z,19.50
2022-11-24T20:26:07.946Z,19.50
2022-11-24T20:29:13.124Z,19.44
2022-11-24T20:32:19.419Z,19.44
2022-11-24T20:35:21.542Z,19.44
2022-11-24T20:38:23.636Z,19.44
2022-11-24T20:41:28.477Z,19.44
2022-11-24T20:44:30.595Z,19.38
2022-11-24T20:47:32.902Z,19.44
2022-11-24T20:50:38.005Z,19.44
2022-11-24T20:53:40.428Z,19.44
2022-11-24T20:56:44.371Z,19.38
2022-11-24T20:59:46.475Z,19.38
2022-11-24T21:02:48.811Z,19.38
2022-11-24T21:05:55.733Z,19.38
2022-11-24T21:09:03.517Z,19.38
2022-11-24T21:12:06.510Z,19.38
2022-11-24T21:15:09.123Z,19.38
2022-11-24T21:18:11.161Z,19.31
2022-11-24T21:21:14.046Z,19.38
2022-11-24T21:24:18.536Z,19.38
2022-11-24T21:27:20.609Z,19.31
2022-11-24T21:30:22.735Z,19.31
2022-11-24T21:33:24.958Z,19.31
2022-11-24T21:36:27.158Z,19.31
2022-11-24T21:39:29.250Z,19.31
2022-11-24T21:42:31.456Z,19.25
2022-11-24T21:45:34.759Z,19.25
2022-11-24T21:48:38.484Z,19.25
2022-11-24T21:51:40.576Z,19.31
2022-11-24T21:54:42.612Z,19.25
2022-11-24T21:57:44.765Z,19.25
2022-11-24T22:00:46.916Z,19.25
2022-11-24T22:03:49.354Z,19.25
2022-11-24T22:06:53.307Z,19.25
2022-11-24T22:09:55.361Z,19.25
2022-11-24T22:12:57.444Z,19.25
2022-11-24T22:16:05.157Z,19.25
2022-11-24T22:19:07.352Z,19.25
2022-11-24T22:22:09.398Z,19.25
2022-11-24T22:25:11.729Z,19.19
2022-11-24T22:28:13.850Z,19.19
2022-11-24T22:31:21.612Z,19.19
2022-11-24T22:34:23.761Z,19.19
2022-11-24T22:37:25.762Z,19.19
2022-11-24T22:40:27.978Z,19.19
2022-11-24T22:43:31.885Z,19.19
2022-11-24T22:46:34.290Z,19.13
2022-11-24T22:49:36.343Z,19.19
2022-11-24T22:52:40.359Z,19.19
2022-11-24T22:55:42.439Z,19.13
2022-11-24T22:58:44.663Z,19.13
2022-11-24T23:01:46.692Z,19.13
2022-11-24T23:04:48.833Z,19.13
2022-11-24T23:07:51.794Z,19.13
2022-11-24T23:11:00.632Z,19.06
2022-11-24T23:14:03.270Z,19.06
2022-11-24T23:17:05.338Z,19.06
2022-11-24T23:20:08.401Z,19.06
2022-11-24T23:23:10.491Z,19.06
2022-11-24T23:26:16.248Z,19.00
2022-11-24T23:29:18.337Z,19.00
2022-11-24T23:32:20.470Z,19.06
2022-11-24T23:35:23.641Z,18.94
2022-11-24T23:38:30.081Z,19.00
2022-11-24T23:41:32.420Z,18.94
2022-11-24T23:44:34.587Z,19.00
2022-11-24T23:47:36.795Z,18.94
2022-11-24T23:50:38.867Z,18.94
2022-11-24T23:53:41.533Z,18.94
2022-11-24T23:56:43.615Z,18.94
2022-11-24T23:59:45.669Z,18.94
